This is the latest recevied weather packets stored in our database for station/object W1RCP. If no packets are shown the sender has not sent any weather packets the latest 1 day(s).
| Time | Temp. | Humidity | Pressure | Rain* | Wind** | Luminosity | Snow |
|---|---|---|---|---|---|---|---|
| 1778079220 | 26.67° C | 62% | 1027.5 hPa | 0 mm | - | 661 W/m² | - |
| 1778078918 | 26.11° C | 62% | 1027.7 hPa | 0 mm | - | 674 W/m² | - |
| 1778078614 | 26.67° C | 62% | 1027.5 hPa | 0 mm | - | 583 W/m² | - |
| 1778078313 | 26.11° C | 63% | 1027.3 hPa | 0 mm | - | 671 W/m² | - |
| 1778077708 | 25.56° C | 66% | 1027.5 hPa | 0 mm | - | 609 W/m² | - |
| 1778075893 | 25° C | 70% | 1026.9 hPa | 0 mm | - | 537 W/m² | - |
| 1778075589 | 25° C | 70% | 1027 hPa | 0 mm | - | 541 W/m² | - |
| 1778074982 | 25° C | 72% | 1027.2 hPa | 0 mm | - | 486 W/m² | - |
| 1778074376 | 24.44° C | 74% | 1027.1 hPa | 0 mm | - | 429 W/m² | - |
| 1778073770 | 23.89° C | 77% | 1027 hPa | 0 mm | - | 427 W/m² | - |
| 1778071046 | 21.67° C | 87% | 1026.6 hPa | 0 mm | - | 129 W/m² | - |
| 1778070441 | 21.11° C | 88% | 1026.8 hPa | 0 mm | - | 74 W/m² | - |
| 1778068928 | 20° C | 93% | 1026.3 hPa | 0 mm | - | 74 W/m² | - |
| 1778068626 | 20° C | 94% | 1026.4 hPa | 0 mm | - | 72 W/m² | - |
| 1778068021 | 19.44° C | 96% | 1026.2 hPa | 0 mm | - | 72 W/m² | - |
| 1778067114 | 19.44° C | 97% | 1026.1 hPa | 0 mm | - | 37 W/m² | - |
| 1778066205 | 18.89° C | 97% | 1025.8 hPa | 0 mm | - | 20 W/m² | - |
| 1778064389 | 18.89° C | 97% | 1025.3 hPa | 0 mm | - | 2 W/m² | - |
| 1778064086 | 18.89° C | 97% | 1025.4 hPa | 0 mm | - | 1 W/m² | - |
| 1778062572 | 18.33° C | 97% | 1025.4 hPa | 0 mm | - | 0 W/m² | - |
| 1778061665 | 18.33° C | 97% | 1025.6 hPa | 0 mm | - | 0 W/m² | - |
| 1778060455 | 17.78° C | 97% | 1025.6 hPa | 0 mm | - | 0 W/m² | - |
| 1778060153 | 17.78° C | 97% | 1025.8 hPa | 0 mm | - | 0 W/m² | - |
| 1778059850 | 17.78° C | 97% | 1025.8 hPa | 0 mm | - | 0 W/m² | - |
| 1778059548 | 17.78° C | 96% | 1025.7 hPa | 0 mm | - | 0 W/m² | - |
* Rain latest hour (hover to see other rain measurements)
** Current wind speed in m/s (hover to see current wind gust speed)